sensor_id;sensor_type;location;lat;lon;timestamp;pressure;altitude;pressure_sealevel;temperature;humidity
26112;BME280;13829;48.990;8.346;2023-03-05T00:02:14;100926.44;;;5.61;73.39
26112;BME280;13829;48.990;8.346;2023-03-05T00:04:41;100918.75;;;5.66;73.28
26112;BME280;13829;48.990;8.346;2023-03-05T00:07:08;100924.00;;;5.67;73.10
26112;BME280;13829;48.990;8.346;2023-03-05T00:09:38;100926.69;;;5.69;71.92
26112;BME280;13829;48.990;8.346;2023-03-05T00:12:06;100924.53;;;5.57;72.66
26112;BME280;13829;48.990;8.346;2023-03-05T00:14:33;100922.97;;;5.62;72.60
26112;BME280;13829;48.990;8.346;2023-03-05T00:17:00;100925.28;;;5.53;71.24
26112;BME280;13829;48.990;8.346;2023-03-05T00:19:27;100931.47;;;5.55;71.70
26112;BME280;13829;48.990;8.346;2023-03-05T00:21:54;100921.63;;;5.48;72.78
26112;BME280;13829;48.990;8.346;2023-03-05T00:24:21;100926.31;;;5.58;72.10
26112;BME280;13829;48.990;8.346;2023-03-05T00:26:49;100926.31;;;5.58;72.46
26112;BME280;13829;48.990;8.346;2023-03-05T00:29:19;100918.53;;;5.60;72.32
26112;BME280;13829;48.990;8.346;2023-03-05T00:31:47;100913.69;;;5.70;71.89
26112;BME280;13829;48.990;8.346;2023-03-05T00:34:17;100912.53;;;5.62;71.61
26112;BME280;13829;48.990;8.346;2023-03-05T00:36:48;100909.31;;;5.69;72.00
26112;BME280;13829;48.990;8.346;2023-03-05T00:39:16;100912.53;;;5.62;72.38
26112;BME280;13829;48.990;8.346;2023-03-05T00:41:44;100898.66;;;5.63;72.74
26112;BME280;13829;48.990;8.346;2023-03-05T00:44:13;100910.88;;;5.64;71.88
26112;BME280;13829;48.990;8.346;2023-03-05T00:46:40;100899.00;;;5.72;72.33
26112;BME280;13829;48.990;8.346;2023-03-05T00:49:07;100905.88;;;5.70;72.34
26112;BME280;13829;48.990;8.346;2023-03-05T00:51:34;100895.44;;;5.70;72.36
26112;BME280;13829;48.990;8.346;2023-03-05T00:54:01;100900.44;;;5.64;72.61
26112;BME280;13829;48.990;8.346;2023-03-05T00:56:28;100893.09;;;5.80;72.95
26112;BME280;13829;48.990;8.346;2023-03-05T00:58:56;100888.84;;;5.82;72.55
26112;BME280;13829;48.990;8.346;2023-03-05T01:01:25;100891.94;;;5.97;71.73
26112;BME280;13829;48.990;8.346;2023-03-05T01:03:53;100884.16;;;5.71;72.20
26112;BME280;13829;48.990;8.346;2023-03-05T01:06:21;100885.28;;;5.80;72.82
26112;BME280;13829;48.990;8.346;2023-03-05T01:08:48;100883.13;;;5.66;72.43
26112;BME280;13829;48.990;8.346;2023-03-05T01:11:15;100876.53;;;5.78;71.92
26112;BME280;13829;48.990;8.346;2023-03-05T01:13:42;100876.47;;;5.76;73.63
26112;BME280;13829;48.990;8.346;2023-03-05T01:16:09;100882.81;;;5.57;73.65
26112;BME280;13829;48.990;8.346;2023-03-05T01:18:39;100868.50;;;5.46;74.04
26112;BME280;13829;48.990;8.346;2023-03-05T01:21:06;100870.81;;;5.36;74.67
26112;BME280;13829;48.990;8.346;2023-03-05T01:23:33;100871.75;;;5.64;74.83
26112;BME280;13829;48.990;8.346;2023-03-05T01:26:02;100865.81;;;5.43;75.33
26112;BME280;13829;48.990;8.346;2023-03-05T01:28:29;100861.44;;;5.42;75.57
26112;BME280;13829;48.990;8.346;2023-03-05T01:30:57;100862.59;;;5.50;75.79
26112;BME280;13829;48.990;8.346;2023-03-05T01:33:24;100852.44;;;5.59;75.87
26112;BME280;13829;48.990;8.346;2023-03-05T01:35:52;100854.84;;;5.53;75.77
26112;BME280;13829;48.990;8.346;2023-03-05T01:38:19;100858.06;;;5.46;76.03
26112;BME280;13829;48.990;8.346;2023-03-05T01:40:46;100856.50;;;5.51;75.35
26112;BME280;13829;48.990;8.346;2023-03-05T01:43:24;100850.78;;;5.35;76.59
26112;BME280;13829;48.990;8.346;2023-03-05T01:46:31;100845.53;;;5.34;76.70
26112;BME280;13829;48.990;8.346;2023-03-05T01:49:16;100859.31;;;5.30;76.66
26112;BME280;13829;48.990;8.346;2023-03-05T01:51:55;100851.28;;;5.51;76.08
26112;BME280;13829;48.990;8.346;2023-03-05T01:54:30;100840.84;;;5.51;75.65
26112;BME280;13829;48.990;8.346;2023-03-05T01:57:05;100845.94;;;5.46;76.16
26112;BME280;13829;48.990;8.346;2023-03-05T01:59:34;100840.72;;;5.46;76.26
26112;BME280;13829;48.990;8.346;2023-03-05T02:02:02;100831.63;;;5.33;75.63
26112;BME280;13829;48.990;8.346;2023-03-05T02:04:38;100828.13;;;5.60;76.20
26112;BME280;13829;48.990;8.346;2023-03-05T02:07:09;100832.41;;;5.31;76.77
26112;BME280;13829;48.990;8.346;2023-03-05T02:09:38;100831.63;;;5.33;76.51
26112;BME280;13829;48.990;8.346;2023-03-05T02:12:07;100830.13;;;5.42;76.34
26112;BME280;13829;48.990;8.346;2023-03-05T02:14:35;100828.84;;;5.29;77.44
26112;BME280;13829;48.990;8.346;2023-03-05T02:17:02;100823.81;;;5.62;76.15
26112;BME280;13829;48.990;8.346;2023-03-05T02:19:45;100826.53;;;5.65;76.18
26112;BME280;13829;48.990;8.346;2023-03-05T02:22:15;100830.34;;;5.48;75.59
26112;BME280;13829;48.990;8.346;2023-03-05T02:24:43;100823.94;;;5.65;76.18
26112;BME280;13829;48.990;8.346;2023-03-05T02:27:12;100819.69;;;5.42;76.52
26112;BME280;13829;48.990;8.346;2023-03-05T02:29:43;100819.69;;;5.42;77.87
26112;BME280;13829;48.990;8.346;2023-03-05T02:32:12;100821.84;;;5.28;78.10
26112;BME280;13829;48.990;8.346;2023-03-05T02:34:39;100817.13;;;5.43;78.00
26112;BME280;13829;48.990;8.346;2023-03-05T02:37:06;100811.72;;;5.37;77.49
26112;BME280;13829;48.990;8.346;2023-03-05T02:39:36;100813.72;;;5.46;77.68
26112;BME280;13829;48.990;8.346;2023-03-05T02:42:04;100810.84;;;5.36;77.55
26112;BME280;13829;48.990;8.346;2023-03-05T02:44:31;100807.25;;;5.60;77.02
26112;BME280;13829;48.990;8.346;2023-03-05T02:46:58;100805.91;;;5.46;76.77
26112;BME280;13829;48.990;8.346;2023-03-05T02:49:26;100800.16;;;5.29;76.50
26112;BME280;13829;48.990;8.346;2023-03-05T02:51:53;100801.88;;;5.28;77.04
26112;BME280;13829;48.990;8.346;2023-03-05T02:54:20;100797.63;;;5.32;77.16
26112;BME280;13829;48.990;8.346;2023-03-05T02:56:49;100781.72;;;5.50;75.65
26112;BME280;13829;48.990;8.346;2023-03-05T02:59:16;100787.44;;;5.39;75.50
26112;BME280;13829;48.990;8.346;2023-03-05T03:01:42;100783.09;;;5.38;75.56
26112;BME280;13829;48.990;8.346;2023-03-05T03:04:09;100783.28;;;5.45;75.32
26112;BME280;13829;48.990;8.346;2023-03-05T03:06:36;100771.34;;;5.53;74.93
26112;BME280;13829;48.990;8.346;2023-03-05T03:09:03;100773.97;;;5.53;74.16
26112;BME280;13829;48.990;8.346;2023-03-05T03:11:30;100771.78;;;5.39;74.22
26112;BME280;13829;48.990;8.346;2023-03-05T03:13:59;100773.81;;;5.48;74.92
26112;BME280;13829;48.990;8.346;2023-03-05T03:16:26;100769.47;;;5.47;73.58
26112;BME280;13829;48.990;8.346;2023-03-05T03:18:53;100763.50;;;5.51;74.29
26112;BME280;13829;48.990;8.346;2023-03-05T03:21:23;100762.03;;;5.32;74.21
26112;BME280;13829;48.990;8.346;2023-03-05T03:23:52;100756.69;;;5.29;75.09
26112;BME280;13829;48.990;8.346;2023-03-05T03:26:19;100762.56;;;5.22;75.58
26112;BME280;13829;48.990;8.346;2023-03-05T03:28:46;100761.81;;;5.26;75.66
26112;BME280;13829;48.990;8.346;2023-03-05T03:31:15;100757.22;;;5.45;75.67
26112;BME280;13829;48.990;8.346;2023-03-05T03:33:42;100755.91;;;5.32;75.25
26112;BME280;13829;48.990;8.346;2023-03-05T03:36:10;100754.63;;;5.19;75.88
26112;BME280;13829;48.990;8.346;2023-03-05T03:38:37;100755.84;;;5.30;76.67
26112;BME280;13829;48.990;8.346;2023-03-05T03:41:05;100754.75;;;5.22;75.25
26112;BME280;13829;48.990;8.346;2023-03-05T03:43:33;100753.06;;;5.24;76.44
26112;BME280;13829;48.990;8.346;2023-03-05T03:46:00;100754.34;;;5.10;76.67
26112;BME280;13829;48.990;8.346;2023-03-05T03:48:30;100750.34;;;5.21;77.39
26112;BME280;13829;48.990;8.346;2023-03-05T03:50:57;100741.34;;;5.38;77.21
26112;BME280;13829;48.990;8.346;2023-03-05T03:53:24;100731.88;;;5.42;76.15
26112;BME280;13829;48.990;8.346;2023-03-05T03:55:57;100736.41;;;5.48;76.08
26112;BME280;13829;48.990;8.346;2023-03-05T03:58:24;100742.38;;;5.44;76.07
26112;BME280;13829;48.990;8.346;2023-03-05T04:00:51;100731.88;;;5.42;76.10
26112;BME280;13829;48.990;8.346;2023-03-05T04:03:18;100729.91;;;5.33;76.39
26112;BME280;13829;48.990;8.346;2023-03-05T04:05:46;100734.25;;;5.34;76.88
26112;BME280;13829;48.990;8.346;2023-03-05T04:08:13;100730.63;;;5.29;76.54
26112;BME280;13829;48.990;8.346;2023-03-05T04:10:40;100725.31;;;5.26;77.17
26112;BME280;13829;48.990;8.346;2023-03-05T04:13:07;100726.88;;;5.21;77.37
26112;BME280;13829;48.990;8.346;2023-03-05T04:15:34;100721.34;;;5.12;78.27
26112;BME280;13829;48.990;8.346;2023-03-05T04:18:02;100725.28;;;4.99;77.38
26112;BME280;13829;48.990;8.346;2023-03-05T04:20:28;100722.56;;;4.94;78.41
26112;BME280;13829;48.990;8.346;2023-03-05T04:22:57;100713.50;;;5.37;77.12
26112;BME280;13829;48.990;8.346;2023-03-05T04:25:24;100707.50;;;5.13;77.64
26112;BME280;13829;48.990;8.346;2023-03-05T04:27:51;100706.94;;;5.23;78.29
26112;BME280;13829;48.990;8.346;2023-03-05T04:30:18;100714.09;;;5.01;76.59
26112;BME280;13829;48.990;8.346;2023-03-05T04:32:45;100703.84;;;5.07;78.20
26112;BME280;13829;48.990;8.346;2023-03-05T04:35:12;100711.88;;;5.14;77.79
26112;BME280;13829;48.990;8.346;2023-03-05T04:37:39;100705.03;;;5.17;77.46
26112;BME280;13829;48.990;8.346;2023-03-05T04:40:09;100713.22;;;5.28;77.73
26112;BME280;13829;48.990;8.346;2023-03-05T04:42:36;100708.97;;;5.32;77.25
26112;BME280;13829;48.990;8.346;2023-03-05T04:45:04;100702.78;;;5.28;76.82
26112;BME280;13829;48.990;8.346;2023-03-05T04:47:32;100696.66;;;5.28;76.76
26112;BME280;13829;48.990;8.346;2023-03-05T04:49:59;100699.88;;;5.19;76.91
26112;BME280;13829;48.990;8.346;2023-03-05T04:52:26;100695.38;;;5.13;77.06
26112;BME280;13829;48.990;8.346;2023-03-05T04:54:53;100702.41;;;5.16;77.13
26112;BME280;13829;48.990;8.346;2023-03-05T04:57:21;100699.31;;;5.29;76.71
26112;BME280;13829;48.990;8.346;2023-03-05T04:59:48;100692.84;;;5.16;78.07
26112;BME280;13829;48.990;8.346;2023-03-05T05:02:15;100697.59;;;5.02;77.94
26112;BME280;13829;48.990;8.346;2023-03-05T05:04:42;100695.25;;;5.10;77.64
26112;BME280;13829;48.990;8.346;2023-03-05T05:07:11;100698.75;;;5.11;78.65
26112;BME280;13829;48.990;8.346;2023-03-05T05:09:38;100701.72;;;5.23;78.14
26112;BME280;13829;48.990;8.346;2023-03-05T05:12:07;100697.19;;;5.16;78.34
26112;BME280;13829;48.990;8.346;2023-03-05T05:14:36;100698.41;;;5.27;78.14
26112;BME280;13829;48.990;8.346;2023-03-05T05:17:03;100695.41;;;5.15;78.66
26112;BME280;13829;48.990;8.346;2023-03-05T05:19:30;100691.53;;;5.02;78.05
26112;BME280;13829;48.990;8.346;2023-03-05T05:21:57;100688.97;;;5.03;78.83
26112;BME280;13829;48.990;8.346;2023-03-05T05:24:25;100684.03;;;5.13;78.92
26112;BME280;13829;48.990;8.346;2023-03-05T05:26:54;100680.16;;;5.00;79.22
26112;BME280;13829;48.990;8.346;2023-03-05T05:29:21;100691.41;;;4.99;79.82
26112;BME280;13829;48.990;8.346;2023-03-05T05:31:49;100683.50;;;4.96;79.95
26112;BME280;13829;48.990;8.346;2023-03-05T05:34:17;100683.59;;;4.99;79.88
26112;BME280;13829;48.990;8.346;2023-03-05T05:36:44;100686.16;;;4.97;80.26
26112;BME280;13829;48.990;8.346;2023-03-05T05:39:11;100684.78;;;5.09;79.26
26112;BME280;13829;48.990;8.346;2023-03-05T05:41:38;100688.22;;;5.07;79.58
26112;BME280;13829;48.990;8.346;2023-03-05T05:44:05;100691.56;;;5.03;78.34
26112;BME280;13829;48.990;8.346;2023-03-05T05:46:32;100689.34;;;5.16;77.91
26112;BME280;13829;48.990;8.346;2023-03-05T05:49:00;100693.44;;;5.07;77.88
26112;BME280;13829;48.990;8.346;2023-03-05T05:51:27;100690.16;;;5.13;78.07
26112;BME280;13829;48.990;8.346;2023-03-05T05:53:54;100687.31;;;5.05;78.14
26112;BME280;13829;48.990;8.346;2023-03-05T05:56:21;100693.22;;;5.01;78.01
26112;BME280;13829;48.990;8.346;2023-03-05T05:58:48;100680.38;;;5.07;78.01
26112;BME280;13829;48.990;8.346;2023-03-05T06:01:19;100682.97;;;5.06;78.57
26112;BME280;13829;48.990;8.346;2023-03-05T06:03:47;100680.50;;;5.11;77.46
26112;BME280;13829;48.990;8.346;2023-03-05T06:06:19;100683.13;;;5.11;77.75
26112;BME280;13829;48.990;8.346;2023-03-05T06:08:47;100680.63;;;5.15;76.78
26112;BME280;13829;48.990;8.346;2023-03-05T06:11:15;100684.09;;;5.14;77.44
26112;BME280;13829;48.990;8.346;2023-03-05T06:13:42;100688.00;;;5.29;76.67
26112;BME280;13829;48.990;8.346;2023-03-05T06:16:13;100688.88;;;5.29;77.05
26112;BME280;13829;48.990;8.346;2023-03-05T06:18:41;100690.00;;;5.09;77.61
26112;BME280;13829;48.990;8.346;2023-03-05T06:21:11;100679.84;;;5.18;77.93
26112;BME280;13829;48.990;8.346;2023-03-05T06:23:41;100685.38;;;5.27;77.88
26112;BME280;13829;48.990;8.346;2023-03-05T06:26:10;100684.03;;;5.13;77.41
26112;BME280;13829;48.990;8.346;2023-03-05T06:28:38;100681.97;;;5.30;77.64
26112;BME280;13829;48.990;8.346;2023-03-05T06:31:08;100682.41;;;5.16;77.56
26112;BME280;13829;48.990;8.346;2023-03-05T06:33:36;100677.19;;;5.16;78.33
26112;BME280;13829;48.990;8.346;2023-03-05T06:36:04;100684.69;;;5.34;78.08
26112;BME280;13829;48.990;8.346;2023-03-05T06:38:32;100682.09;;;5.34;78.53
26112;BME280;13829;48.990;8.346;2023-03-05T06:41:02;100672.16;;;5.50;76.43
26112;BME280;13829;48.990;8.346;2023-03-05T06:43:30;100670.38;;;5.49;76.73
26112;BME280;13829;48.990;8.346;2023-03-05T06:46:04;100677.88;;;5.39;76.87
26112;BME280;13829;48.990;8.346;2023-03-05T06:48:32;100681.28;;;5.37;76.43
26112;BME280;13829;48.990;8.346;2023-03-05T06:50:59;100672.75;;;5.41;76.66
26112;BME280;13829;48.990;8.346;2023-03-05T06:53:26;100678.47;;;5.58;76.70
26112;BME280;13829;48.990;8.346;2023-03-05T06:55:54;100669.69;;;5.56;76.37
26112;BME280;13829;48.990;8.346;2023-03-05T06:58:22;100671.34;;;5.52;76.19
26112;BME280;13829;48.990;8.346;2023-03-05T07:00:49;100674.88;;;5.54;75.97
26112;BME280;13829;48.990;8.346;2023-03-05T07:03:16;100671.66;;;5.63;76.67
26112;BME280;13829;48.990;8.346;2023-03-05T07:05:43;100666.53;;;5.66;76.63
26112;BME280;13829;48.990;8.346;2023-03-05T07:08:11;100664.16;;;5.74;75.97
26112;BME280;13829;48.990;8.346;2023-03-05T07:10:38;100666.75;;;5.74;76.16
26112;BME280;13829;48.990;8.346;2023-03-05T07:13:06;100661.53;;;5.74;75.97
26112;BME280;13829;48.990;8.346;2023-03-05T07:15:39;100668.16;;;5.93;75.81
26112;BME280;13829;48.990;8.346;2023-03-05T07:18:06;100666.56;;;5.68;75.34
26112;BME280;13829;48.990;8.346;2023-03-05T07:20:34;100656.41;;;5.77;76.08
26112;BME280;13829;48.990;8.346;2023-03-05T07:23:01;100660.81;;;5.80;76.56
26112;BME280;13829;48.990;8.346;2023-03-05T07:25:29;100654.75;;;5.81;76.42
26112;BME280;13829;48.990;8.346;2023-03-05T07:27:56;100651.09;;;6.04;75.01
26112;BME280;13829;48.990;8.346;2023-03-05T07:30:23;100657.41;;;6.13;73.79
26112;BME280;13829;48.990;8.346;2023-03-05T07:32:52;100653.28;;;6.21;73.73
26112;BME280;13829;48.990;8.346;2023-03-05T07:35:18;100653.00;;;6.44;72.32
26112;BME280;13829;48.990;8.346;2023-03-05T07:37:45;100646.13;;;6.47;72.16
26112;BME280;13829;48.990;8.346;2023-03-05T07:40:13;100649.56;;;6.45;71.63
26112;BME280;13829;48.990;8.346;2023-03-05T07:42:39;100652.88;;;6.39;72.03
26112;BME280;13829;48.990;8.346;2023-03-05T07:45:08;100658.31;;;6.47;71.85
26112;BME280;13829;48.990;8.346;2023-03-05T07:47:35;100657.41;;;6.45;70.73
26112;BME280;13829;48.990;8.346;2023-03-05T07:50:05;100662.75;;;6.51;72.01
26112;BME280;13829;48.990;8.346;2023-03-05T07:52:32;100661.31;;;6.29;71.73
26112;BME280;13829;48.990;8.346;2023-03-05T07:54:59;100654.13;;;6.20;72.68
26112;BME280;13829;48.990;8.346;2023-03-05T07:57:26;100661.13;;;6.21;72.84
26112;BME280;13829;48.990;8.346;2023-03-05T07:59:53;100650.84;;;6.27;73.12
26112;BME280;13829;48.990;8.346;2023-03-05T08:02:20;100656.38;;;6.40;72.98
26112;BME280;13829;48.990;8.346;2023-03-05T08:04:47;100652.25;;;6.48;72.23
26112;BME280;13829;48.990;8.346;2023-03-05T08:07:16;100653.19;;;6.51;71.83
26112;BME280;13829;48.990;8.346;2023-03-05T08:09:43;100645.63;;;6.62;70.73
26112;BME280;13829;48.990;8.346;2023-03-05T08:12:10;100636.47;;;6.80;69.95
26112;BME280;13829;48.990;8.346;2023-03-05T08:14:37;100639.03;;;6.77;69.81
26112;BME280;13829;48.990;8.346;2023-03-05T08:17:04;100641.47;;;6.71;70.21
26112;BME280;13829;48.990;8.346;2023-03-05T08:19:32;100635.16;;;6.62;69.92
26112;BME280;13829;48.990;8.346;2023-03-05T08:21:59;100637.25;;;6.76;69.75
26112;BME280;13829;48.990;8.346;2023-03-05T08:24:28;100642.47;;;6.76;70.57
26112;BME280;13829;48.990;8.346;2023-03-05T08:26:56;100638.56;;;6.58;70.58
26112;BME280;13829;48.990;8.346;2023-03-05T08:29:23;100638.13;;;6.76;70.58
26112;BME280;13829;48.990;8.346;2023-03-05T08:31:51;100641.66;;;6.78;69.32
26112;BME280;13829;48.990;8.346;2023-03-05T08:34:19;100639.06;;;6.78;70.11
26112;BME280;13829;48.990;8.346;2023-03-05T08:36:47;100641.22;;;6.96;69.54
26112;BME280;13829;48.990;8.346;2023-03-05T08:39:14;100630.00;;;7.00;69.41
26112;BME280;13829;48.990;8.346;2023-03-05T08:41:42;100629.50;;;7.17;68.20
26112;BME280;13829;48.990;8.346;2023-03-05T08:44:09;100631.19;;;7.15;68.75
26112;BME280;13829;48.990;8.346;2023-03-05T08:46:38;100633.81;;;7.16;68.77
26112;BME280;13829;48.990;8.346;2023-03-05T08:49:05;100631.38;;;7.24;68.30
26112;BME280;13829;48.990;8.346;2023-03-05T08:51:33;100627.22;;;7.32;68.17
26112;BME280;13829;48.990;8.346;2023-03-05T08:54:01;100625.09;;;7.57;68.16
26112;BME280;13829;48.990;8.346;2023-03-05T08:56:32;100625.09;;;7.57;68.02
26112;BME280;13829;48.990;8.346;2023-03-05T08:59:01;100626.22;;;7.68;67.01
26112;BME280;13829;48.990;8.346;2023-03-05T09:01:28;100624.78;;;7.42;67.50
26112;BME280;13829;48.990;8.346;2023-03-05T09:03:56;100624.97;;;7.51;67.70
26112;BME280;13829;48.990;8.346;2023-03-05T09:06:24;100621.06;;;7.30;67.73
26112;BME280;13829;48.990;8.346;2023-03-05T09:08:52;100620.91;;;7.24;68.32
26112;BME280;13829;48.990;8.346;2023-03-05T09:11:20;100616.34;;;7.15;68.68
26112;BME280;13829;48.990;8.346;2023-03-05T09:13:47;100615.47;;;7.13;69.91
26112;BME280;13829;48.990;8.346;2023-03-05T09:16:17;100616.59;;;7.25;69.68
26112;BME280;13829;48.990;8.346;2023-03-05T09:18:45;100616.47;;;7.20;69.00
26112;BME280;13829;48.990;8.346;2023-03-05T09:21:15;100617.41;;;7.22;68.91
26112;BME280;13829;48.990;8.346;2023-03-05T09:23:43;100612.19;;;7.24;68.88
26112;BME280;13829;48.990;8.346;2023-03-05T09:26:14;100614.06;;;7.29;69.29
26112;BME280;13829;48.990;8.346;2023-03-05T09:28:44;100608.09;;;7.37;69.59
26112;BME280;13829;48.990;8.346;2023-03-05T09:31:11;100601.84;;;7.28;69.75
26112;BME280;13829;48.990;8.346;2023-03-05T09:33:40;100604.34;;;7.24;70.10
26112;BME280;13829;48.990;8.346;2023-03-05T09:36:18;100598.22;;;7.23;68.73
26112;BME280;13829;48.990;8.346;2023-03-05T09:38:46;100603.25;;;7.14;70.40
26112;BME280;13829;48.990;8.346;2023-03-05T09:41:24;100595.88;;;7.35;70.83
26112;BME280;13829;48.990;8.346;2023-03-05T09:44:01;100597.94;;;7.50;69.92
26112;BME280;13829;48.990;8.346;2023-03-05T09:46:47;100597.97;;;7.54;69.64
26112;BME280;13829;48.990;8.346;2023-03-05T09:49:30;100596.25;;;7.53;69.30
26112;BME280;13829;48.990;8.346;2023-03-05T09:52:06;100592.13;;;7.65;69.39
26112;BME280;13829;48.990;8.346;2023-03-05T09:54:38;100594.91;;;7.75;69.71
26112;BME280;13829;48.990;8.346;2023-03-05T09:57:15;100596.03;;;7.88;68.38
26112;BME280;13829;48.990;8.346;2023-03-05T09:59:48;100588.28;;;7.94;67.96
26112;BME280;13829;48.990;8.346;2023-03-05T10:02:22;100584.00;;;7.97;67.65
26112;BME280;13829;48.990;8.346;2023-03-05T10:04:59;100588.50;;;8.05;67.67
26112;BME280;13829;48.990;8.346;2023-03-05T10:07:32;100585.94;;;8.09;67.33
26112;BME280;13829;48.990;8.346;2023-03-05T10:10:02;100585.88;;;8.03;66.70
26112;BME280;13829;48.990;8.346;2023-03-05T10:12:39;100583.53;;;8.20;65.96
26112;BME280;13829;48.990;8.346;2023-03-05T10:15:13;100587.75;;;8.12;66.98
26112;BME280;13829;48.990;8.346;2023-03-05T10:17:55;100584.81;;;7.93;67.27
26112;BME280;13829;48.990;8.346;2023-03-05T10:20:40;100574.06;;;7.79;67.79
26112;BME280;13829;48.990;8.346;2023-03-05T10:23:26;100571.63;;;7.90;67.29
26112;BME280;13829;48.990;8.346;2023-03-05T10:26:16;100573.16;;;7.79;67.97
26112;BME280;13829;48.990;8.346;2023-03-05T10:28:53;100563.13;;;8.00;67.87
26112;BME280;13829;48.990;8.346;2023-03-05T10:31:37;100566.38;;;7.89;67.08
26112;BME280;13829;48.990;8.346;2023-03-05T10:34:36;100568.41;;;8.04;67.51
26112;BME280;13829;48.990;8.346;2023-03-05T10:40:25;100555.19;;;7.97;67.79
26112;BME280;13829;48.990;8.346;2023-03-05T10:43:06;100554.47;;;8.05;66.96
26112;BME280;13829;48.990;8.346;2023-03-05T10:45:39;100543.72;;;7.89;68.05
26112;BME280;13829;48.990;8.346;2023-03-05T10:48:17;100545.34;;;7.84;68.34
26112;BME280;13829;48.990;8.346;2023-03-05T10:50:51;100552.66;;;7.56;68.47
26112;BME280;13829;48.990;8.346;2023-03-05T10:53:27;100543.25;;;7.66;68.46
26112;BME280;13829;48.990;8.346;2023-03-05T10:55:54;100545.84;;;7.63;68.71
26112;BME280;13829;48.990;8.346;2023-03-05T10:58:23;100536.81;;;7.48;69.93
26112;BME280;13829;48.990;8.346;2023-03-05T11:00:59;100542.13;;;7.51;69.99
26112;BME280;13829;48.990;8.346;2023-03-05T11:03:51;100534.81;;;7.81;69.81
26112;BME280;13829;48.990;8.346;2023-03-05T11:06:35;100514.22;;;7.99;68.91
26112;BME280;13829;48.990;8.346;2023-03-05T11:09:22;100515.88;;;7.94;67.87
26112;BME280;13829;48.990;8.346;2023-03-05T11:12:09;100513.25;;;7.94;67.74
26112;BME280;13829;48.990;8.346;2023-03-05T11:14:40;100509.59;;;7.86;67.87
26112;BME280;13829;48.990;8.346;2023-03-05T11:17:31;100503.63;;;7.93;68.04
26112;BME280;13829;48.990;8.346;2023-03-05T11:20:31;100505.69;;;8.13;66.84
26112;BME280;13829;48.990;8.346;2023-03-05T11:23:05;100500.44;;;8.11;67.15
26112;BME280;13829;48.990;8.346;2023-03-05T11:25:57;100494.53;;;8.25;66.79
26112;BME280;13829;48.990;8.346;2023-03-05T11:28:30;100491.94;;;8.26;66.95
26112;BME280;13829;48.990;8.346;2023-03-05T11:31:05;100494.53;;;8.25;66.24
26112;BME280;13829;48.990;8.346;2023-03-05T11:33:34;100490.78;;;8.09;66.42
26112;BME280;13829;48.990;8.346;2023-03-05T11:36:30;100488.03;;;7.99;66.93
26112;BME280;13829;48.990;8.346;2023-03-05T11:39:08;100495.03;;;8.00;67.25
26112;BME280;13829;48.990;8.346;2023-03-05T11:41:41;100486.03;;;7.86;67.21
26112;BME280;13829;48.990;8.346;2023-03-05T11:44:13;100492.97;;;7.84;67.20
26112;BME280;13829;48.990;8.346;2023-03-05T11:46:46;100491.81;;;7.66;67.62
26112;BME280;13829;48.990;8.346;2023-03-05T11:49:18;100484.53;;;7.50;68.79
26112;BME280;13829;48.990;8.346;2023-03-05T11:51:56;100491.44;;;7.46;70.12
26112;BME280;13829;48.990;8.346;2023-03-05T11:54:33;100481.66;;;7.38;70.48
26112;BME280;13829;48.990;8.346;2023-03-05T11:57:05;100487.59;;;7.29;70.67
26112;BME280;13829;48.990;8.346;2023-03-05T11:59:37;100487.63;;;7.30;70.35
26112;BME280;13829;48.990;8.346;2023-03-05T12:02:17;100465.44;;;7.57;70.30
26112;BME280;13829;48.990;8.346;2023-03-05T12:04:46;100463.78;;;7.62;69.49
26112;BME280;13829;48.990;8.346;2023-03-05T12:07:18;100456.06;;;7.68;69.26
26112;BME280;13829;48.990;8.346;2023-03-05T12:09:51;100454.59;;;7.84;69.06
26112;BME280;13829;48.990;8.346;2023-03-05T12:12:32;100450.22;;;7.83;69.17
26112;BME280;13829;48.990;8.346;2023-03-05T12:15:28;100448.53;;;7.87;67.29
26112;BME280;13829;48.990;8.346;2023-03-05T12:18:19;100436.41;;;7.95;67.59
26112;BME280;13829;48.990;8.346;2023-03-05T12:21:01;100438.78;;;7.80;67.16
26112;BME280;13829;48.990;8.346;2023-03-05T12:23:46;100430.13;;;7.84;67.63
26112;BME280;13829;48.990;8.346;2023-03-05T12:26:13;100425.50;;;7.67;67.83
26112;BME280;13829;48.990;8.346;2023-03-05T12:29:26;100422.09;;;7.72;68.60
26112;BME280;13829;48.990;8.346;2023-03-05T12:31:54;100414.34;;;7.78;68.65
26112;BME280;13829;48.990;8.346;2023-03-05T12:34:46;100414.41;;;7.82;68.13
26112;BME280;13829;48.990;8.346;2023-03-05T12:38:01;100406.44;;;7.76;67.51
26112;BME280;13829;48.990;8.346;2023-03-05T12:40:30;100401.31;;;7.82;67.38
26112;BME280;13829;48.990;8.346;2023-03-05T12:42:59;100389.81;;;7.73;68.48
26112;BME280;13829;48.990;8.346;2023-03-05T12:45:45;100383.72;;;7.74;67.50
26112;BME280;13829;48.990;8.346;2023-03-05T12:48:43;100391.56;;;7.74;67.85
26112;BME280;13829;48.990;8.346;2023-03-05T12:51:27;100393.31;;;7.75;67.10
26112;BME280;13829;48.990;8.346;2023-03-05T12:56:45;100381.81;;;7.65;68.26
26112;BME280;13829;48.990;8.346;2023-03-05T12:59:14;100376.75;;;7.74;68.79
26112;BME280;13829;48.990;8.346;2023-03-05T13:01:49;100370.94;;;7.95;68.83
26112;BME280;13829;48.990;8.346;2023-03-05T13:04:24;100377.16;;;8.00;68.63
26112;BME280;13829;48.990;8.346;2023-03-05T13:07:01;100378.97;;;8.06;67.82
26112;BME280;13829;48.990;8.346;2023-03-05T13:09:32;100369.44;;;8.10;67.60
26112;BME280;13829;48.990;8.346;2023-03-05T13:12:03;100364.09;;;8.04;67.07
26112;BME280;13829;48.990;8.346;2023-03-05T13:14:40;100364.97;;;8.04;66.39
26112;BME280;13829;48.990;8.346;2023-03-05T13:17:33;100348.88;;;8.41;66.34
26112;BME280;13829;48.990;8.346;2023-03-05T13:20:27;100355.69;;;8.26;66.14
26112;BME280;13829;48.990;8.346;2023-03-05T13:23:13;100359.06;;;8.19;66.54
26112;BME280;13829;48.990;8.346;2023-03-05T13:25:42;100362.41;;;8.06;67.05
26112;BME280;13829;48.990;8.346;2023-03-05T13:28:12;100356.47;;;8.19;66.51